Latest Coastal Weather Observations for Dennes Point

IDT60701

Issued at 1:55 am EDT Saturday 25 October 2014 (issued every 10 minutes, with the page automatically refreshed every 10 minutes)

About coastal observations | Map of coastal stations | Coastal observations for TAS | Marine services | Other Formats
Station Details ID: 094255 Name: DENNES POINT Lat: -43.06 Lon: 147.36 Height: 5.67 m
Data from the previous 72 hours. | See also: Recent months at Dennes Point
Date/Time
EDT
Temp

°C
Wind Pressure Rain
since 9am
mm
Weather Cloud Vis
km
Sea
Height
m
Swell
Dir
 
Speed
knots
Gust
knots
hPa Trend Height
m
Period
s
Dir
25/01:30am 13.6 N 2 5 1008.6 - 0.0 - - - - - - -
25/01:00am 13.6 ESE 3 5 1008.6 - 0.0 - - - - - - -
25/12:30am 13.1 SSE 1 2 1008.9 - 0.0 - - - - - - -
25/12:00am 13.0 SSW 2 3 1008.7 - 0.0 - - - - - - -
 
Date/Time
EDT
Temp

°C
Wind Pressure Rain
since 9am
mm
Weather Cloud Vis
km
Sea
Height
m
Swell
Dir
 
Speed
knots
Gust
knots
hPa Trend Height
m
Period
s
Dir
24/11:30pm 13.5 SW 4 6 1008.7 - 0.0 - - - - - - -
24/11:00pm 13.4 SSW 1 3 1008.6 - 0.0 - - - - - - -
24/10:30pm 13.7 SW 5 9 1008.3 - 0.0 - - - - - - -
24/10:00pm 14.5 ESE 3 4 1008.3 - 0.0 - - - - - - -
24/09:30pm 14.3 NE 2 3 1008.4 - 0.0 - - - - - - -
24/09:00pm 14.8 CALM 0 0 1008.2 - 0.0 - - - - - - -
24/08:30pm 14.4 NW 1 2 1008.2 - 0.0 - - - - - - -
24/08:00pm 15.1 NE 8 9 1007.8 - 0.0 - - - - - - -
24/07:30pm 15.3 NE 10 11 1007.7 - 0.0 - - - - - - -
24/07:00pm 15.5 ENE 10 12 1007.9 - 0.0 - - - - - - -
24/06:30pm 15.8 NNE 13 16 1008.4 - 0.0 - - - - - - -
24/06:00pm 16.1 NE 12 14 1009.0 - 0.0 - - - - - - -
24/05:30pm 16.4 NE 12 16 1009.2 - 0.0 - - - - - - -
24/05:00pm 17.1 NE 14 16 1009.3 - 0.0 - - - - - - -
24/04:30pm 17.0 NE 15 18 1009.5 - 0.0 - - - - - - -
24/04:00pm 17.3 NE 13 15 1010.2 - 0.0 - - - - - - -
24/03:30pm 17.8 NE 13 15 1010.8 - 0.0 - - - - - - -
24/03:00pm 17.7 NE 12 15 1011.4 - 0.0 - - - - - - -
24/02:30pm 16.2 NE 12 14 1012.1 - 0.0 - - - - - - -
24/02:00pm 15.8 NE 12 15 1012.6 - 0.0 - - - - - - -
24/01:30pm 15.3 NE 13 16 1013.5 - 0.0 - - - - - - -
24/01:00pm 15.0 NE 16 18 1014.2 - 0.0 - - - - - - -
24/12:30pm 15.3 NNE 12 13 1014.7 - 0.0 - - - - - - -
24/12:00pm 15.7 NNE 9 11 1015.5 - 0.0 - - - - - - -
24/11:30am 14.1 NE 9 10 1016.3 - 0.0 - - - - - - -
24/11:00am 13.8 N 11 13 1016.7 - 0.0 - - - - - - -
24/10:30am 13.4 N 12 14 1017.3 - 0.0 - - - - - - -
24/10:00am 12.9 N 14 17 1017.5 - 0.0 - - - - - - -
24/09:30am 12.3 N 15 19 1018.1 - 0.0 - - - - - - -
24/09:00am 12.1 N 17 20 1018.5 - 0.0 - - - - - - -
24/08:30am 12.0 N 15 19 1019.3 - 0.0 - - - - - - -
24/08:00am 11.5 N 15 18 1019.6 - 0.0 - - - - - - -
24/07:30am 11.4 N 15 19 1020.0 - 0.0 - - - - - - -
24/07:00am 10.8 N 13 16 1020.0 - 0.0 - - - - - - -
24/06:30am 10.7 N 13 15 1020.3 - 0.0 - - - - - - -
24/06:00am 10.8 N 13 16 1020.6 - 0.0 - - - - - - -
24/05:30am 10.7 N 13 15 1020.9 - 0.0 - - - - - - -
24/05:00am 10.5 N 13 15 1021.1 - 0.0 - - - - - - -
24/04:30am 10.4 N 11 14 1021.5 - 0.0 - - - - - - -
24/04:00am 10.4 NNE 12 14 1021.8 - 0.0 - - - - - - -
24/03:30am 10.7 NNE 13 16 1022.4 - 0.0 - - - - - - -
24/03:00am 10.4 N 13 15 1022.9 - 0.0 - - - - - - -
24/02:30am 10.8 N 12 14 1023.0 - 0.0 - - - - - - -
24/02:00am 10.9 NNE 12 14 1023.5 - 0.0 - - - - - - -
24/01:30am 10.8 N 13 15 1023.8 - 0.0 - - - - - - -
24/01:00am 10.8 NNE 13 16 1024.2 - 0.0 - - - - - - -
24/12:30am 10.8 NNE 13 16 1024.5 - 0.0 - - - - - - -
24/12:00am 10.9 NNE 12 15 1024.9 - 0.0 - - - - - - -
 
Date/Time
EDT
Temp

°C
Wind Pressure Rain
since 9am
mm
Weather Cloud Vis
km
Sea
Height
m
Swell
Dir
 
Speed
knots
Gust
knots
hPa Trend Height
m
Period
s
Dir
23/11:30pm 11.1 NNE 13 15 1024.9 - 0.0 - - - - - - -
23/11:00pm 11.3 NNE 14 17 1025.0 - 0.0 - - - - - - -
23/10:30pm 11.4 NNE 13 16 1025.1 - 0.0 - - - - - - -
23/10:00pm 11.5 NE 15 18 1025.1 - 0.0 - - - - - - -
23/09:30pm 11.6 NE 17 20 1025.4 - 0.0 - - - - - - -
23/09:00pm 11.6 NE 13 16 1025.7 - 0.0 - - - - - - -
23/08:30pm 11.6 NE 12 15 1025.5 - 0.0 - - - - - - -
23/08:00pm 11.9 NE 13 15 1025.6 - 0.0 - - - - - - -
23/07:30pm 12.1 ENE 12 14 1025.7 - 0.0 - - - - - - -
23/07:00pm 12.7 ENE 11 13 1025.6 - 0.0 - - - - - - -
23/06:30pm 13.1 ENE 11 13 1025.3 - 0.0 - - - - - - -
23/06:00pm 13.6 E 7 11 1025.4 - 0.0 - - - - - - -
23/05:30pm 13.7 ESE 7 10 1025.4 - 0.0 - - - - - - -
23/05:00pm 13.6 ESE 10 12 1025.1 - 0.0 - - - - - - -
23/04:30pm 13.7 ESE 10 13 1025.1 - 0.0 - - - - - - -
23/04:00pm 13.8 ESE 11 13 1025.2 - 0.0 - - - - - - -
23/03:30pm 13.9 ESE 9 11 1025.1 - 0.0 - - - - - - -
23/03:00pm 13.8 ESE 9 13 1025.3 - 0.0 - - - - - - -
23/02:30pm 13.9 ESE 9 12 1025.6 - 0.0 - - - - - - -
23/02:00pm 13.9 ESE 9 11 1025.7 - 0.0 - - - - - - -
23/01:30pm 13.8 ESE 7 9 1025.9 - 0.0 - - - - - - -
23/01:00pm 13.8 ESE 9 13 1025.8 - 0.0 - - - - - - -
23/12:30pm 13.9 ESE 8 11 1026.1 - 0.0 - - - - - - -
23/12:00pm 13.9 ESE 8 10 1026.4 - 0.0 - - - - - - -
23/11:30am 13.8 E 7 10 1026.7 - 0.0 - - - - - - -
23/11:00am 13.4 ESE 7 11 1026.7 - 0.0 - - - - - - -
23/10:30am 12.8 E 6 10 1026.6 - 0.0 - - - - - - -
23/10:00am 12.7 ESE 6 10 1026.6 - 0.0 - - - - - - -
23/09:30am 11.8 SW 6 8 1026.4 - 0.0 - - - - - - -
23/09:00am 11.9 S 4 7 1026.4 - 0.0 - - - - - - -
23/08:30am 11.3 SSW 5 9 1026.2 - 0.0 - - - - - - -
23/08:00am 11.2 SSW 5 8 1025.8 - 0.0 - - - - - - -
23/07:30am 10.6 SSW 6 9 1025.4 - 0.0 - - - - - - -
23/07:00am 10.4 S 5 7 1024.9 - 0.0 - - - - - - -
23/06:30am 10.3 S 5 9 1024.3 - 0.0 - - - - - - -
23/06:00am 10.4 S 5 8 1023.9 - 0.0 - - - - - - -
23/05:30am 10.5 S 3 6 1023.3 - 0.0 - - - - - - -
23/05:00am 10.8 SSW 5 8 1022.9 - 0.0 - - - - - - -
23/04:30am 10.9 SSW 4 8 1022.6 - 0.0 - - - - - - -
23/04:00am 11.0 S 5 8 1022.4 - 0.0 - - - - - - -
23/03:30am 10.9 S 6 10 1022.3 - 0.0 - - - - - - -
23/03:00am 10.9 SSW 8 16 1022.3 - 0.0 - - - - - - -
23/02:30am 11.3 SSW 10 15 1022.2 - 0.0 - - - - - - -
23/02:00am 11.1 SSW 9 16 1022.0 - 0.0 - - - - - - -
23/01:30am 11.2 SSW 10 18 1021.7 - 0.0 - - - - - - -
23/01:00am 11.7 SSW 14 20 1021.5 - 0.0 - - - - - - -
23/12:30am 12.3 SSW 10 16 1021.5 - 0.0 - - - - - - -
23/12:00am 13.1 S 12 19 1021.0 - 0.0 - - - - - - -
 
Date/Time
EDT
Temp

°C
Wind Pressure Rain
since 9am
mm
Weather Cloud Vis
km
Sea
Height
m
Swell
Dir
 
Speed
knots
Gust
knots
hPa Trend Height
m
Period
s
Dir
22/11:30pm 13.7 SSW 13 19 1020.2 - 0.0 - - - - - - -
22/11:00pm 13.5 S 14 21 1020.0 - 0.0 - - - - - - -
22/10:30pm 13.7 S 15 23 1019.5 - 0.0 - - - - - - -
22/10:00pm 13.7 S 16 22 1018.8 - 0.0 - - - - - - -
22/09:30pm 14.3 SSW 9 19 1018.5 - 0.0 - - - - - - -
22/09:00pm 15.2 S 7 12 1018.0 - 0.0 - - - - - - -
22/08:30pm 14.3 SW 4 5 1017.3 - 0.0 - - - - - - -
22/08:00pm 14.2 SE 4 7 1016.5 - 0.0 - - - - - - -
22/07:30pm 14.8 SE 4 6 1016.1 - 0.0 - - - - - - -
22/07:00pm 16.5 W 3 5 1015.5 - 0.0 - - - - - - -
22/06:30pm 16.0 SSE 5 11 1014.9 - 0.0 - - - - - - -
22/06:00pm 16.6 ESE 6 9 1014.2 - 0.0 - - - - - - -
22/05:30pm 18.3 SSW 5 10 1014.4 - 0.0 - - - - - - -
22/05:00pm 17.9 SW 7 9 1014.1 - 0.0 - - - - - - -
22/04:30pm 18.9 SSE 3 6 1013.4 - 0.0 - - - - - - -
22/04:00pm 19.3 E 4 7 1014.0 - 0.0 - - - - - - -
22/03:30pm 19.8 SE 8 12 1013.8 - 0.0 - - - - - - -
22/03:00pm 22.3 ESE 6 7 1013.9 - 0.0 - - - - - - -
22/02:30pm 20.1 ESE 6 8 1014.0 - 0.0 - - - - - - -
22/02:00pm 19.7 ESE 7 9 1014.2 - 0.0 - - - - - - -
22/01:30pm 20.5 ESE 8 10 1014.7 - 0.0 - - - - - - -
22/01:00pm 19.9 NNE 2 3 1015.0 - 0.0 - - - - - - -
22/12:30pm 18.6 NNE 3 4 1015.6 - 0.0 - - - - - - -
22/12:00pm 17.5 N 7 8 1016.0 - 0.0 - - - - - - -
22/11:30am 16.7 N 8 10 1016.7 - 0.0 - - - - - - -
22/11:00am 16.1 N 11 14 1017.1 - 0.0 - - - - - - -
22/10:30am 15.4 N 12 16 1017.6 - 0.0 - - - - - - -
22/10:00am 15.1 NNE 9 11 1018.1 - 0.0 - - - - - - -
22/09:30am 14.0 N 9 13 1018.5 - 0.0 - - - - - - -
22/09:00am 13.4 N 11 14 1018.5 - 0.0 - - - - - - -
22/08:30am 12.9 N 12 14 1018.8 - 0.0 - - - - - - -
22/08:00am 11.5 WSW 2 4 1019.3 - 0.0 - - - - - - -
22/07:30am 11.9 N 3 8 1019.1 - 0.0 - - - - - - -
22/07:00am 11.6 NNE 3 6 1019.3 - 0.0 - - - - - - -
22/06:30am 9.8 E 1 4 1019.6 - 0.0 - - - - - - -
22/06:00am 12.2 N 17 21 1019.6 - 0.0 - - - - - - -
22/05:43am 12.3 N 17 21 1019.7 - 0.0 - - - - - - -
22/05:30am 11.5 NNW 5 10 1019.9 - 0.0 - - - - - - -
22/05:00am 11.9 N 9 15 1020.1 - 0.0 - - - - - - -
22/04:30am 12.3 N 16 21 1020.6 - 0.0 - - - - - - -
22/04:00am 12.5 N 19 23 1020.8 - 0.0 - - - - - - -
22/03:30am 12.6 N 17 23 1021.4 - 0.0 - - - - - - -
22/03:00am 12.7 NNE 16 19 1022.1 - 0.0 - - - - - - -
22/02:30am 12.9 N 14 17 1022.7 - 0.0 - - - - - - -
22/02:00am 12.8 N 11 15 1023.1 - 0.0 - - - - - - -

Other Formats:

Comma delimited format used in spreadsheet applications
http://www.bom.gov.au/fwo/IDT60701/IDT60701.94988.axf

JavaScript Object Notation format (JSON) in row-major order
http://www.bom.gov.au/fwo/IDT60701/IDT60701.94988.json